createdAt,value
2022-07-26T00:01:51.762Z,2.13
2022-07-26T00:06:58.001Z,2.34
2022-07-26T00:12:04.242Z,2.94
2022-07-26T00:17:10.490Z,2.94
2022-07-26T00:22:16.702Z,1.81
2022-07-26T00:27:22.995Z,2.17
2022-07-26T00:32:28.967Z,2.14
2022-07-26T00:37:35.353Z,2.19
2022-07-26T00:42:41.561Z,2.29
2022-07-26T00:47:47.790Z,2.05
2022-07-26T00:52:54.010Z,1.53
2022-07-26T00:58:00.475Z,2.30
2022-07-26T01:03:06.720Z,1.99
2022-07-26T01:08:13.009Z,1.89
2022-07-26T01:13:19.233Z,3.68
2022-07-26T01:18:25.496Z,2.34
2022-07-26T01:23:31.729Z,1.86
2022-07-26T01:28:37.554Z,2.07
2022-07-26T01:33:46.215Z,1.50
2022-07-26T01:38:52.460Z,2.58
2022-07-26T01:43:58.682Z,3.45
2022-07-26T01:49:04.997Z,1.93
2022-07-26T01:54:11.687Z,3.11
2022-07-26T01:59:16.993Z,1.21
2022-07-26T02:04:23.263Z,2.18
2022-07-26T02:09:31.498Z,2.27
2022-07-26T02:14:35.263Z,1.46
2022-07-26T02:19:41.501Z,1.84
2022-07-26T02:24:47.789Z,1.61
2022-07-26T02:29:53.995Z,2.95
2022-07-26T02:35:00.364Z,1.83
2022-07-26T02:40:06.687Z,3.69
2022-07-26T02:45:12.875Z,1.49
2022-07-26T02:50:19.107Z,1.47
2022-07-26T02:55:25.365Z,2.07
2022-07-26T03:00:31.661Z,2.76
2022-07-26T03:05:37.872Z,1.51
2022-07-26T03:10:44.117Z,1.49
2022-07-26T03:15:50.363Z,1.57
2022-07-26T03:20:56.602Z,2.64
2022-07-26T03:26:02.805Z,1.28
2022-07-26T03:31:09.178Z,2.08
2022-07-26T03:36:16.326Z,1.64
2022-07-26T03:41:21.270Z,1.39
2022-07-26T03:46:27.704Z,2.01
2022-07-26T03:56:34.465Z,2.16
2022-07-26T04:01:40.747Z,1.79
2022-07-26T04:06:46.996Z,1.58
2022-07-26T04:11:53.365Z,1.83
2022-07-26T04:16:59.691Z,1.28
2022-07-26T04:22:05.889Z,1.48
2022-07-26T04:27:12.255Z,1.73
2022-07-26T04:32:18.576Z,2.21
2022-07-26T04:37:26.020Z,1.79
2022-07-26T04:42:31.997Z,1.97
2022-07-26T04:47:38.240Z,2.36
2022-07-26T04:52:44.620Z,1.34
2022-07-26T04:57:50.907Z,2.20
2022-07-26T05:02:57.202Z,3.22
2022-07-26T05:08:03.533Z,2.35
2022-07-26T05:13:09.778Z,2.14
2022-07-26T05:18:16.155Z,2.33
2022-07-26T05:23:22.483Z,2.95
2022-07-26T05:28:28.802Z,2.53
2022-07-26T05:33:35.214Z,2.55
2022-07-26T05:38:44.464Z,1.85
2022-07-26T05:43:50.648Z,1.96
2022-07-26T05:48:57.027Z,2.51
2022-07-26T05:54:03.303Z,2.72
2022-07-26T05:59:09.569Z,2.76
2022-07-26T06:04:15.850Z,3.23
2022-07-26T06:09:22.078Z,3.44
2022-07-26T06:14:28.381Z,2.88
2022-07-26T06:19:34.752Z,3.57
2022-07-26T06:24:42.106Z,2.97
2022-07-26T06:29:48.490Z,3.91
2022-07-26T06:34:54.695Z,3.66
2022-07-26T06:40:01.012Z,3.57
2022-07-26T06:45:07.289Z,4.08
2022-07-26T06:50:13.540Z,4.15
2022-07-26T06:55:19.900Z,4.38
2022-07-26T07:00:26.211Z,3.43
2022-07-26T07:05:32.478Z,3.69
2022-07-26T07:10:38.727Z,4.86
2022-07-26T07:15:44.932Z,4.99
2022-07-26T07:20:51.215Z,4.86
2022-07-26T07:25:57.435Z,3.64
2022-07-26T07:31:03.948Z,4.63
2022-07-26T07:36:10.115Z,4.43
2022-07-26T07:41:16.496Z,4.08
2022-07-26T07:46:22.851Z,5.06
2022-07-26T07:51:29.273Z,4.77
2022-07-26T07:56:35.504Z,4.15
2022-07-26T08:01:41.894Z,4.03
2022-07-26T08:06:50.360Z,5.48
2022-07-26T08:11:53.877Z,5.59
2022-07-26T08:17:00.198Z,4.82
2022-07-26T08:22:06.441Z,5.44
2022-07-26T08:27:12.864Z,4.11
2022-07-26T08:32:19.583Z,3.49
2022-07-26T08:37:25.962Z,4.75
2022-07-26T08:42:32.288Z,4.71
2022-07-26T08:47:55.233Z,3.26
2022-07-26T08:52:44.315Z,3.52
2022-07-26T08:57:50.609Z,3.54
2022-07-26T09:02:56.999Z,3.79
2022-07-26T09:08:03.177Z,3.47
2022-07-26T09:13:09.539Z,4.45
2022-07-26T09:18:15.816Z,3.81
2022-07-26T09:23:22.037Z,4.56
2022-07-26T09:28:28.361Z,4.17
2022-07-26T09:33:34.691Z,5.26
2022-07-26T09:38:40.973Z,4.41
2022-07-26T09:43:50.297Z,5.06
2022-07-26T09:49:09.889Z,5.42
2022-07-26T09:53:58.829Z,5.00
2022-07-26T09:59:05.036Z,5.43
2022-07-26T10:04:11.728Z,5.52
2022-07-26T10:09:17.123Z,5.25
2022-07-26T10:14:23.378Z,5.71
2022-07-26T10:19:29.839Z,4.24
2022-07-26T10:24:35.701Z,4.09
2022-07-26T10:29:41.472Z,4.68
2022-07-26T10:34:47.728Z,5.14
2022-07-26T10:39:54.068Z,5.31
2022-07-26T10:45:00.369Z,4.54
2022-07-26T10:50:06.735Z,4.79
2022-07-26T10:55:12.990Z,4.47
2022-07-26T11:00:19.295Z,4.14
2022-07-26T11:05:25.548Z,5.07
2022-07-26T11:10:31.761Z,3.96
2022-07-26T11:15:38.064Z,4.19
2022-07-26T11:20:44.269Z,4.09
2022-07-26T11:25:50.546Z,4.49
2022-07-26T11:30:56.824Z,3.28
2022-07-26T11:36:03.252Z,3.19
2022-07-26T11:41:09.476Z,4.46
2022-07-26T11:46:15.790Z,4.58
2022-07-26T11:51:22.946Z,3.69
2022-07-26T11:56:29.254Z,3.57
2022-07-26T12:01:35.488Z,3.45
2022-07-26T12:06:41.806Z,2.69
2022-07-26T12:11:48.078Z,3.41
2022-07-26T12:16:54.370Z,3.82
2022-07-26T12:22:00.612Z,4.87
2022-07-26T12:27:06.831Z,2.33
2022-07-26T12:32:13.085Z,6.76
2022-07-26T12:37:19.359Z,3.01
2022-07-26T12:42:33.291Z,3.19
2022-07-26T12:47:31.447Z,3.44
2022-07-26T12:52:37.725Z,3.35
2022-07-26T12:57:46.126Z,2.92
2022-07-26T13:02:49.845Z,4.08
2022-07-26T13:07:59.179Z,2.59
2022-07-26T13:13:05.469Z,2.99
2022-07-26T13:18:12.844Z,2.42
2022-07-26T13:23:21.335Z,2.08
2022-07-26T13:28:24.956Z,2.63
2022-07-26T13:33:31.234Z,2.30
2022-07-26T13:38:37.465Z,2.70
2022-07-26T13:43:43.785Z,1.56
2022-07-26T13:49:00.755Z,2.07
2022-07-26T13:53:55.784Z,3.54
2022-07-26T13:59:02.008Z,2.29
2022-07-26T14:04:08.405Z,2.91
2022-07-26T14:09:14.533Z,1.34
2022-07-26T14:14:20.884Z,2.90
2022-07-26T14:19:27.191Z,2.46
2022-07-26T14:24:33.449Z,4.97
2022-07-26T14:29:39.653Z,2.05
2022-07-26T14:34:45.930Z,2.73
2022-07-26T14:39:52.238Z,2.13
2022-07-26T14:44:58.494Z,1.65
2022-07-26T14:50:07.145Z,1.62
2022-07-26T14:55:11.741Z,1.73
2022-07-26T15:00:18.048Z,2.07
2022-07-26T15:05:24.302Z,2.91
2022-07-26T15:10:30.618Z,2.45
2022-07-26T15:15:36.910Z,3.52
2022-07-26T15:20:43.211Z,2.43
2022-07-26T15:25:49.427Z,2.21
2022-07-26T15:30:55.680Z,1.36
2022-07-26T15:36:05.946Z,1.49
2022-07-26T15:41:07.639Z,1.30
2022-07-26T15:46:14.079Z,0.61
2022-07-26T15:51:19.812Z,0.62
2022-07-26T15:56:26.038Z,0.97
2022-07-26T16:01:32.386Z,1.12
2022-07-26T16:06:38.653Z,1.28
2022-07-26T16:11:45.020Z,1.31
2022-07-26T16:16:51.327Z,1.56
2022-07-26T16:21:57.530Z,1.00
2022-07-26T16:27:04.181Z,0.69
2022-07-26T16:32:10.501Z,1.07
2022-07-26T16:37:16.687Z,1.18
2022-07-26T16:42:22.985Z,1.29
2022-07-26T16:47:29.245Z,1.38
2022-07-26T16:52:35.568Z,0.90
2022-07-26T16:57:41.804Z,2.10
2022-07-26T17:02:48.032Z,1.42
2022-07-26T17:07:54.346Z,1.26
2022-07-26T17:13:00.681Z,1.58
2022-07-26T17:18:06.923Z,0.75
2022-07-26T17:23:13.310Z,1.14
2022-07-26T17:28:19.585Z,1.56
2022-07-26T17:33:25.929Z,1.11
2022-07-26T17:38:34.860Z,0.91
2022-07-26T17:43:40.139Z,1.53
2022-07-26T17:48:47.561Z,1.70
2022-07-26T17:53:53.787Z,0.67
2022-07-26T17:59:00.129Z,0.98
2022-07-26T18:04:06.745Z,1.03
2022-07-26T18:09:13.668Z,0.98
2022-07-26T18:14:18.904Z,0.69
2022-07-26T18:19:25.157Z,1.15
2022-07-26T18:24:31.417Z,1.13
2022-07-26T18:29:37.706Z,0.71
2022-07-26T18:34:51.630Z,1.64
2022-07-26T18:39:52.826Z,0.63
2022-07-26T18:44:55.477Z,1.06
2022-07-26T18:50:01.731Z,1.25
2022-07-26T18:55:07.554Z,0.90
2022-07-26T19:00:13.942Z,1.21
2022-07-26T19:05:20.209Z,1.67
2022-07-26T19:10:26.471Z,0.68
2022-07-26T19:15:36.096Z,1.45
2022-07-26T19:20:42.242Z,0.91
2022-07-26T19:25:48.466Z,0.91
2022-07-26T19:30:54.742Z,0.95
2022-07-26T19:36:01.005Z,0.92
2022-07-26T19:41:11.525Z,1.21
2022-07-26T19:46:15.219Z,1.36
2022-07-26T19:51:21.184Z,0.77
2022-07-26T19:56:27.031Z,1.22
2022-07-26T20:01:33.484Z,1.42
2022-07-26T20:06:39.785Z,1.05
2022-07-26T20:11:47.044Z,1.08
2022-07-26T20:16:56.334Z,1.52
2022-07-26T20:21:59.288Z,1.40
2022-07-26T20:27:05.657Z,1.72
2022-07-26T20:32:12.087Z,0.88
2022-07-26T20:37:18.492Z,1.58
2022-07-26T20:42:26.594Z,0.91
2022-07-26T20:47:31.875Z,2.12
2022-07-26T20:52:38.237Z,1.57
2022-07-26T20:57:44.500Z,1.52
2022-07-26T21:02:50.841Z,1.33
2022-07-26T21:07:59.163Z,1.10
2022-07-26T21:13:02.863Z,1.77
2022-07-26T21:18:09.128Z,1.88
2022-07-26T21:23:17.719Z,1.50
2022-07-26T21:28:20.839Z,1.07
2022-07-26T21:33:26.674Z,1.65
2022-07-26T21:38:33.042Z,1.22
2022-07-26T21:43:39.413Z,1.81
2022-07-26T21:48:45.760Z,1.26
2022-07-26T21:53:52.065Z,1.37
2022-07-26T21:58:58.389Z,1.37
2022-07-26T22:04:04.625Z,2.37
2022-07-26T22:09:11.075Z,1.33
2022-07-26T22:14:17.532Z,2.09
2022-07-26T22:19:23.358Z,1.94
2022-07-26T22:24:29.658Z,1.83
2022-07-26T22:29:38.990Z,3.40
2022-07-26T22:34:41.674Z,2.20
2022-07-26T22:39:47.907Z,1.31
2022-07-26T22:44:54.253Z,1.86
2022-07-26T22:50:00.502Z,1.99
2022-07-26T22:55:06.883Z,2.46
2022-07-26T23:00:13.089Z,2.03
2022-07-26T23:05:19.589Z,2.56
2022-07-26T23:10:25.660Z,3.15
2022-07-26T23:15:31.899Z,2.93
2022-07-26T23:20:38.180Z,2.55
2022-07-26T23:25:45.785Z,1.89
2022-07-26T23:30:51.619Z,1.73
2022-07-26T23:35:57.854Z,2.29
2022-07-26T23:41:04.045Z,2.45
2022-07-26T23:46:10.386Z,3.03
2022-07-26T23:51:16.647Z,1.82
2022-07-26T23:56:23.530Z,2.62
